Time;durP1;ratioP1;P1;durP2;ratioP2;P2;SDS_P1;SDS_P2;PMS_P1;PMS_P2;Temp;Humidity;BMP_temperature;BMP_pressure;BME280_temperature;BME280_humidity;BME280_pressure;Samples;Min_cycle;Max_cycle;Signal;HPM_P1;HPM_P2
2023/10/03 00:00:49;;;;;;;23.10;10.07;;;;;;;;;;5077943;28;20128;-88
2023/10/03 00:03:16;;;;;;;19.20;10.02;;;;;;;;;;5076895;28;20036;-87
2023/10/03 00:08:46;;;;;;;16.20;10.23;;;;;;;;;;5057884;28;20128;-88
2023/10/03 00:11:19;;;;;;;20.83;9.27;;;;;;;;;;5057934;28;20025;-88
2023/10/03 00:13:46;;;;;;;20.35;9.88;;;;;;;;;;5057603;28;20029;-88
2023/10/03 00:16:12;;;;;;;22.80;9.68;;;;;;;;;;5057800;28;20045;-88
2023/10/03 00:18:38;;;;;;;18.67;9.70;;;;;;;;;;5056977;28;20029;-88
2023/10/03 00:21:04;;;;;;;17.85;9.50;;;;;;;;;;5056780;28;20017;-88
2023/10/03 00:23:32;;;;;;;18.55;9.50;;;;;;;;;;5058004;28;20028;-88
2023/10/03 00:26:01;;;;;;;23.02;10.48;;;;;;;;;;5057976;28;20037;-87
2023/10/03 00:28:29;;;;;;;19.45;9.30;;;;;;;;;;5060974;28;20082;-87
2023/10/03 00:30:56;;;;;;;29.63;9.63;;;;;;;;;;5069149;28;20051;-87
2023/10/03 00:33:25;;;;;;;19.25;9.60;;;;;;;;;;5056183;28;20116;-87
2023/10/03 00:38:55;;;;;;;14.82;8.75;;;;;;;;;;5057672;28;20028;-88
2023/10/03 00:41:22;;;;;;;22.13;8.90;;;;;;;;;;5056571;28;20024;-88
2023/10/03 00:44:04;;;;;;;20.35;9.40;;;;;;;;;;5056286;28;20044;-88
2023/10/03 00:46:30;;;;;;;;;;;;;;;;;;5057109;28;20124;-89
2023/10/03 00:48:57;;;;;;;20.17;9.30;;;;;;;;;;5059547;28;19908;-89
2023/10/03 00:54:27;;;;;;;20.95;8.60;;;;;;;;;;5057527;28;20051;-89
2023/10/03 00:56:54;;;;;;;19.63;9.15;;;;;;;;;;5056594;28;20112;-88
2023/10/03 00:59:20;;;;;;;18.98;9.02;;;;;;;;;;5057171;28;20499;-87
2023/10/03 01:01:46;;;;;;;19.70;8.93;;;;;;;;;;5056366;28;20416;-88
2023/10/03 01:04:19;;;;;;;19.48;8.63;;;;;;;;;;5066384;28;20151;-88
2023/10/03 01:09:49;;;;;;;17.65;9.05;;;;;;;;;;5061665;28;20438;-88
2023/10/03 01:12:16;;;;;;;17.13;8.80;;;;;;;;;;5076087;28;20098;-88
2023/10/03 01:14:42;;;;;;;18.30;8.90;;;;;;;;;;5076230;28;20418;-88
2023/10/03 01:17:09;;;;;;;17.50;8.75;;;;;;;;;;5076558;28;20167;-88
2023/10/03 01:19:38;;;;;;;17.55;8.07;;;;;;;;;;5063628;28;20017;-88
2023/10/03 01:25:11;;;;;;;16.85;7.63;;;;;;;;;;5065597;28;20063;-88
2023/10/03 01:27:38;;;;;;;14.20;7.68;;;;;;;;;;5056072;28;20064;-88
2023/10/03 01:30:06;;;;;;;17.15;7.82;;;;;;;;;;5056141;28;20017;-88
2023/10/03 01:32:33;;;;;;;16.52;7.95;;;;;;;;;;5060353;28;20054;-88
2023/10/03 01:38:05;;;;;;;17.25;8.32;;;;;;;;;;5056784;28;20035;-88
2023/10/03 01:40:31;;;;;;;16.13;7.32;;;;;;;;;;5057775;28;20017;-88
2023/10/03 01:42:57;;;;;;;20.33;7.97;;;;;;;;;;5064722;28;20040;-88
2023/10/03 01:45:24;;;;;;;15.10;7.20;;;;;;;;;;5069387;28;20062;-88
2023/10/03 01:47:51;;;;;;;16.92;7.72;;;;;;;;;;5078119;28;20017;-89
2023/10/03 01:53:23;;;;;;;19.40;7.75;;;;;;;;;;5070531;28;20078;-89
2023/10/03 01:55:49;;;;;;;18.52;7.15;;;;;;;;;;5079607;28;20070;-87
2023/10/03 01:58:15;;;;;;;17.00;7.13;;;;;;;;;;5079456;28;20066;-88
2023/10/03 02:00:42;;;;;;;22.92;8.07;;;;;;;;;;5079044;28;20422;-88
2023/10/03 02:03:12;;;;;;;14.93;7.05;;;;;;;;;;5068844;28;20032;-87
2023/10/03 02:05:56;;;;;;;15.43;6.80;;;;;;;;;;5060056;28;20029;-87
2023/10/03 02:08:24;;;;;;;14.88;7.50;;;;;;;;;;5059364;28;20175;-87
2023/10/03 02:10:50;;;;;;;14.73;7.22;;;;;;;;;;5078497;28;20024;-88
2023/10/03 02:13:17;;;;;;;15.43;6.72;;;;;;;;;;5079841;28;22014;-87
2023/10/03 02:15:44;;;;;;;14.18;6.43;;;;;;;;;;5071288;28;20027;-88
2023/10/03 02:18:12;;;;;;;15.32;6.63;;;;;;;;;;5062647;28;20046;-88
2023/10/03 02:20:47;;;;;;;14.85;6.88;;;;;;;;;;5060942;28;20315;-88
2023/10/03 02:23:17;;;;;;;14.48;6.60;;;;;;;;;;5058699;28;20029;-88
2023/10/03 02:25:44;;;;;;;16.52;6.78;;;;;;;;;;5060040;28;20407;-88
2023/10/03 02:28:10;;;;;;;15.63;6.72;;;;;;;;;;5059848;28;20108;-88
2023/10/03 02:30:36;;;;;;;14.43;6.10;;;;;;;;;;5058831;28;20029;-87
2023/10/03 02:33:12;;;;;;;16.48;6.05;;;;;;;;;;5058579;28;20430;-87
2023/10/03 02:38:55;;;;;;;15.65;6.20;;;;;;;;;;5079644;28;20047;-87
2023/10/03 02:41:21;;;;;;;14.82;6.30;;;;;;;;;;5060044;28;20041;-87
2023/10/03 02:43:47;;;;;;;11.65;6.40;;;;;;;;;;5069351;28;20061;-88
2023/10/03 02:46:14;;;;;;;13.90;5.97;;;;;;;;;;5063338;28;20112;-87
2023/10/03 02:48:43;;;;;;;17.10;6.38;;;;;;;;;;5059215;28;20025;-87
2023/10/03 02:54:12;;;;;;;16.00;6.35;;;;;;;;;;5077445;28;20065;-87
2023/10/03 02:56:38;;;;;;;16.73;6.22;;;;;;;;;;5078305;28;20031;-87
2023/10/03 02:59:06;;;;;;;15.20;6.30;;;;;;;;;;5079093;28;20028;-87
2023/10/03 03:01:35;;;;;;;14.88;6.43;;;;;;;;;;5079309;28;20052;-88
2023/10/03 03:04:02;;;;;;;14.98;6.38;;;;;;;;;;5079288;28;20033;-88
2023/10/03 03:09:36;;;;;;;11.60;5.65;;;;;;;;;;5078366;28;20093;-87
2023/10/03 03:12:06;;;;;;;13.45;6.18;;;;;;;;;;5057884;28;20029;-88
2023/10/03 03:14:32;;;;;;;18.67;5.85;;;;;;;;;;5068339;28;20335;-87
2023/10/03 03:16:58;;;;;;;12.23;5.45;;;;;;;;;;5077793;28;20028;-87
2023/10/03 03:19:27;;;;;;;15.98;5.68;;;;;;;;;;5077676;28;20493;-87
2023/10/03 03:21:57;;;;;;;15.68;6.38;;;;;;;;;;5057735;28;20029;-89
2023/10/03 03:24:33;;;;;;;14.77;6.03;;;;;;;;;;5058598;28;20032;-89
2023/10/03 03:27:00;;;;;;;10.73;6.00;;;;;;;;;;5074137;28;20032;-89
2023/10/03 03:29:35;;;;;;;11.63;5.65;;;;;;;;;;5070225;28;20116;-88
2023/10/03 03:32:04;;;;;;;15.70;6.03;;;;;;;;;;5058401;28;20043;-89
2023/10/03 03:34:30;;;;;;;15.00;6.50;;;;;;;;;;5065559;28;20085;-89
2023/10/03 03:37:14;;;;;;;14.63;6.05;;;;;;;;;;5074893;28;20017;-89
2023/10/03 03:40:10;;;;;;;13.73;6.07;;;;;;;;;;5078595;28;20021;-88
2023/10/03 03:42:28;;;;;;;16.52;5.82;;;;;;;;;;5060912;28;20032;-88
2023/10/03 03:44:54;;;;;;;15.60;6.00;;;;;;;;;;5058040;28;20055;-89
2023/10/03 03:47:21;;;;;;;14.15;5.97;;;;;;;;;;5057548;28;20043;-88
2023/10/03 03:49:47;;;;;;;14.23;5.95;;;;;;;;;;5058442;28;20028;-88
2023/10/03 03:52:16;;;;;;;13.63;6.45;;;;;;;;;;5057177;28;20063;-89
2023/10/03 03:54:42;;;;;;;15.38;6.25;;;;;;;;;;5067339;28;20020;-90
2023/10/03 03:57:08;;;;;;;17.08;6.78;;;;;;;;;;5078064;28;20025;-89
2023/10/03 03:59:35;;;;;;;17.42;6.82;;;;;;;;;;5077399;28;20060;-89
2023/10/03 04:02:02;;;;;;;13.52;6.63;;;;;;;;;;5078263;28;20024;-89
2023/10/03 04:04:28;;;;;;;16.88;6.32;;;;;;;;;;5070164;28;20025;-89
2023/10/03 04:06:55;;;;;;;15.73;6.25;;;;;;;;;;5056931;28;20028;-88
2023/10/03 04:09:21;;;;;;;14.48;6.35;;;;;;;;;;5056906;28;20411;-89
2023/10/03 04:11:47;;;;;;;13.02;5.95;;;;;;;;;;5060871;28;20037;-88
2023/10/03 04:14:13;;;;;;;12.20;6.35;;;;;;;;;;5072054;28;20446;-88
2023/10/03 04:16:40;;;;;;;12.57;5.88;;;;;;;;;;5058175;28;20292;-88
2023/10/03 04:19:07;;;;;;;14.25;6.10;;;;;;;;;;5056808;28;20025;-88
2023/10/03 04:21:35;;;;;;;14.00;5.82;;;;;;;;;;5059998;28;20029;-86
2023/10/03 04:24:01;;;;;;;16.67;5.97;;;;;;;;;;5067732;28;20064;-87
2023/10/03 04:26:28;;;;;;;14.88;6.78;;;;;;;;;;5067598;28;20087;-87
2023/10/03 04:28:54;;;;;;;13.05;6.63;;;;;;;;;;5066814;28;20031;-88
2023/10/03 04:31:20;;;;;;;13.65;5.95;;;;;;;;;;5069061;28;20029;-87
2023/10/03 04:33:46;;;;;;;17.90;6.32;;;;;;;;;;5076573;28;20028;-88
2023/10/03 04:36:45;;;;;;;16.15;6.05;;;;;;;;;;5077177;28;20092;-88
2023/10/03 04:39:11;;;;;;;14.77;6.13;;;;;;;;;;5076843;28;20330;-87
2023/10/03 04:41:43;;;;;;;16.42;6.60;;;;;;;;;;5059891;28;20086;-87
2023/10/03 04:44:09;;;;;;;16.75;7.50;;;;;;;;;;5065431;28;20060;-88
2023/10/03 04:46:35;;;;;;;18.88;9.10;;;;;;;;;;5061763;28;20037;-87
2023/10/03 04:49:01;;;;;;;20.65;9.07;;;;;;;;;;5059387;28;20323;-88
2023/10/03 04:51:27;;;;;;;13.55;8.73;;;;;;;;;;5077661;28;20039;-88
2023/10/03 04:53:53;;;;;;;14.38;7.97;;;;;;;;;;5062872;28;20065;-89
2023/10/03 04:56:19;;;;;;;15.50;8.15;;;;;;;;;;5057298;28;20029;-88
2023/10/03 04:58:45;;;;;;;19.95;7.40;;;;;;;;;;5057495;28;20021;-88
2023/10/03 05:01:14;;;;;;;14.00;7.43;;;;;;;;;;5056395;28;20354;-88
2023/10/03 05:03:40;;;;;;;16.88;9.13;;;;;;;;;;5067455;28;20434;-89
2023/10/03 05:09:42;;;;;;;17.10;7.75;;;;;;;;;;5077230;28;20028;-89
2023/10/03 05:12:08;;;;;;;15.23;7.13;;;;;;;;;;5070201;28;20041;-89
2023/10/03 05:14:37;;;;;;;18.10;7.60;;;;;;;;;;5056186;28;20075;-88
2023/10/03 05:17:03;;;;;;;12.93;6.57;;;;;;;;;;5059335;28;20025;-88
2023/10/03 05:19:29;;;;;;;15.32;6.57;;;;;;;;;;5060377;28;20064;-88
2023/10/03 05:22:32;;;;;;;14.00;6.45;;;;;;;;;;5060299;28;20433;-87
2023/10/03 05:24:59;;;;;;;16.60;6.85;;;;;;;;;;5061240;28;20028;-87
2023/10/03 05:27:27;;;;;;;12.68;6.85;;;;;;;;;;5061198;28;20314;-87
2023/10/03 05:29:53;;;;;;;16.63;7.22;;;;;;;;;;5078976;28;20056;-87
2023/10/03 05:32:21;;;;;;;16.45;7.38;;;;;;;;;;5079724;28;20060;-87
2023/10/03 05:34:48;;;;;;;18.83;6.93;;;;;;;;;;5080616;28;20097;-88
2023/10/03 05:37:14;;;;;;;18.45;6.85;;;;;;;;;;5080042;28;20437;-88
2023/10/03 05:39:41;;;;;;;15.45;7.63;;;;;;;;;;5077600;28;20021;-88
2023/10/03 05:42:07;;;;;;;17.58;7.75;;;;;;;;;;5079797;28;20112;-87
2023/10/03 05:44:37;;;;;;;17.98;8.00;;;;;;;;;;5079454;28;20090;-88
2023/10/03 05:47:03;;;;;;;15.43;8.30;;;;;;;;;;5080410;28;20032;-88
2023/10/03 05:49:29;;;;;;;18.45;9.07;;;;;;;;;;5080383;28;20048;-87
2023/10/03 05:55:12;;;;;;;17.02;8.73;;;;;;;;;;5060347;28;20091;-86
2023/10/03 05:57:41;;;;;;;20.80;9.60;;;;;;;;;;5059414;28;20029;-90
2023/10/03 06:00:10;;;;;;;18.23;8.50;;;;;;;;;;5059899;28;20025;-87
2023/10/03 06:02:39;;;;;;;17.85;9.40;;;;;;;;;;5079329;28;20111;-86
2023/10/03 06:05:09;;;;;;;15.95;8.52;;;;;;;;;;5079123;28;20365;-87
2023/10/03 06:07:38;;;;;;;21.95;9.43;;;;;;;;;;5079244;28;20048;-86
2023/10/03 06:10:05;;;;;;;21.30;10.18;;;;;;;;;;5078383;28;20369;-87
2023/10/03 06:12:34;;;;;;;18.95;8.93;;;;;;;;;;5080414;28;20782;-87
2023/10/03 06:15:00;;;;;;;22.52;9.77;;;;;;;;;;5078997;28;20036;-87
2023/10/03 06:17:27;;;;;;;18.55;8.90;;;;;;;;;;5078995;28;20111;-87
2023/10/03 06:19:53;;;;;;;19.35;8.20;;;;;;;;;;5069177;28;20025;-86
2023/10/03 06:22:44;;;;;;;22.20;9.15;;;;;;;;;;5065961;28;20017;-86
2023/10/03 06:25:10;;;;;;;15.05;8.88;;;;;;;;;;5059099;28;20070;-86
2023/10/03 06:27:37;;;;;;;17.13;8.63;;;;;;;;;;5059780;28;20048;-86
2023/10/03 06:30:03;;;;;;;19.17;9.10;;;;;;;;;;5071172;28;20020;-85
2023/10/03 06:32:29;;;;;;;19.65;8.02;;;;;;;;;;5065841;28;20039;-87
2023/10/03 06:34:55;;;;;;;14.65;7.97;;;;;;;;;;5079550;28;20033;-81
2023/10/03 06:37:23;;;;;;;16.85;8.57;;;;;;;;;;5077803;28;20082;-81
2023/10/03 06:39:49;;;;;;;17.23;8.30;;;;;;;;;;5077831;28;20056;-81
2023/10/03 06:42:16;;;;;;;17.88;7.78;;;;;;;;;;5078846;28;20025;-81
2023/10/03 06:44:42;;;;;;;16.73;8.07;;;;;;;;;;5076878;28;20059;-80
2023/10/03 06:47:09;;;;;;;17.67;7.80;;;;;;;;;;5070011;28;20017;-80
2023/10/03 06:49:35;;;;;;;15.38;7.88;;;;;;;;;;5071619;28;20078;-81
2023/10/03 06:52:02;;;;;;;20.15;8.02;;;;;;;;;;5059322;28;20033;-81
2023/10/03 06:54:29;;;;;;;13.57;7.25;;;;;;;;;;5058592;28;20036;-81
2023/10/03 06:56:55;;;;;;;19.70;7.55;;;;;;;;;;5062526;28;20048;-81
2023/10/03 06:59:21;;;;;;;14.95;7.57;;;;;;;;;;5064084;28;20024;-82
2023/10/03 07:01:47;;;;;;;16.35;7.55;;;;;;;;;;5076171;28;20432;-81
2023/10/03 07:04:13;;;;;;;16.48;7.57;;;;;;;;;;5073137;28;20024;-81
2023/10/03 07:20:50;;;;;;;17.58;7.57;;;;;;;;;;5101288;27;20404;-81
2023/10/03 07:23:17;;;;;;;17.83;6.65;;;;;;;;;;5095402;28;20020;-81
2023/10/03 07:25:43;;;;;;;15.50;6.72;;;;;;;;;;5094634;28;20016;-82
2023/10/03 07:28:09;;;;;;;16.90;6.60;;;;;;;;;;5109471;28;20035;-81
2023/10/03 07:30:35;;;;;;;19.38;7.05;;;;;;;;;;5113817;28;20355;-81
2023/10/03 07:33:01;;;;;;;16.83;6.97;;;;;;;;;;5114481;28;20415;-81
2023/10/03 07:35:28;;;;;;;15.13;6.80;;;;;;;;;;5113818;28;20059;-82
2023/10/03 07:37:54;;;;;;;19.52;7.20;;;;;;;;;;5113855;28;20102;-81
2023/10/03 07:40:22;;;;;;;21.60;5.90;;;;;;;;;;5113769;28;20035;-93
2023/10/03 07:42:49;;;;;;;18.83;6.00;;;;;;;;;;5113133;28;20150;-93
2023/10/03 07:45:17;;;;;;;18.52;6.80;;;;;;;;;;5114167;28;20047;-94
2023/10/03 07:47:44;;;;;;;15.45;6.70;;;;;;;;;;5109588;28;20028;-92
2023/10/03 07:50:11;;;;;;;16.77;6.28;;;;;;;;;;5114629;28;20055;-92
2023/10/03 07:52:38;;;;;;;20.58;6.18;;;;;;;;;;5114204;28;20035;-93
2023/10/03 07:55:05;;;;;;;16.95;6.10;;;;;;;;;;5113885;28;20023;-93
2023/10/03 07:57:31;;;;;;;25.60;6.75;;;;;;;;;;5115305;28;20103;-94
2023/10/03 07:59:58;;;;;;;19.40;6.55;;;;;;;;;;5102201;28;20077;-94
2023/10/03 08:02:32;;;;;;;19.20;6.20;;;;;;;;;;5113779;28;20028;-93
2023/10/03 08:05:00;;;;;;;19.40;6.00;;;;;;;;;;5113776;28;20094;-93
2023/10/03 08:07:27;;;;;;;20.75;6.32;;;;;;;;;;5112873;28;20055;-94
2023/10/03 08:09:54;;;;;;;21.42;5.78;;;;;;;;;;5113663;28;20358;-94
2023/10/03 08:12:28;;;;;;;17.35;6.45;;;;;;;;;;5114360;28;20444;-94
2023/10/03 08:14:55;;;;;;;18.85;5.78;;;;;;;;;;5105795;28;20028;-94
2023/10/03 08:17:25;;;;;;;14.70;5.75;;;;;;;;;;5086847;28;20457;-86
2023/10/03 08:19:52;;;;;;;16.30;5.40;;;;;;;;;;5069627;28;20049;-86
2023/10/03 08:22:20;;;;;;;16.83;5.40;;;;;;;;;;5072086;28;20123;-87
2023/10/03 08:24:46;;;;;;;21.45;5.13;;;;;;;;;;5064109;28;20037;-87
2023/10/03 08:27:18;;;;;;;16.55;5.63;;;;;;;;;;5078989;28;20082;-84
2023/10/03 08:29:50;;;;;;;19.48;6.30;;;;;;;;;;5078020;28;20036;-84
2023/10/03 08:32:16;;;;;;;13.57;4.68;;;;;;;;;;5078835;28;20028;-84
2023/10/03 08:34:44;;;;;;;14.75;5.13;;;;;;;;;;5079391;28;20016;-88
2023/10/03 08:37:18;;;;;;;17.10;5.22;;;;;;;;;;5071949;28;20029;-87
2023/10/03 08:42:52;;;;;;;16.63;4.70;;;;;;;;;;5079992;28;20361;-87
2023/10/03 08:45:27;;;;;;;16.48;4.80;;;;;;;;;;5070492;28;20086;-88
2023/10/03 08:47:54;;;;;;;13.40;5.38;;;;;;;;;;5078616;28;20028;-88
2023/10/03 08:50:33;;;;;;;13.75;5.00;;;;;;;;;;5079693;28;20108;-87
2023/10/03 08:53:12;;;;;;;12.52;5.60;;;;;;;;;;5078770;28;20046;-87
2023/10/03 08:55:39;;;;;;;14.00;5.07;;;;;;;;;;5079618;28;20410;-87
2023/10/03 08:58:08;;;;;;;9.30;4.43;;;;;;;;;;5079757;28;20056;-87
2023/10/03 09:00:40;;;;;;;22.08;5.13;;;;;;;;;;5079644;28;20025;-87
2023/10/03 09:03:10;;;;;;;11.75;4.35;;;;;;;;;;5068070;28;20037;-87
2023/10/03 09:05:40;;;;;;;12.40;5.15;;;;;;;;;;5059637;28;20107;-87
2023/10/03 09:08:10;;;;;;;14.63;4.65;;;;;;;;;;5059755;28;20021;-87
2023/10/03 09:10:50;;;;;;;21.30;5.43;;;;;;;;;;5059496;28;20024;-88
2023/10/03 09:13:23;;;;;;;10.38;4.93;;;;;;;;;;5058449;28;20048;-88
2023/10/03 09:15:49;;;;;;;16.30;5.13;;;;;;;;;;5058411;28;20052;-88
2023/10/03 09:18:21;;;;;;;15.27;4.63;;;;;;;;;;5078235;28;20069;-88
2023/10/03 09:20:49;;;;;;;9.90;4.45;;;;;;;;;;5099792;28;20376;-88
2023/10/03 09:23:17;;;;;;;11.25;4.75;;;;;;;;;;5084097;28;20058;-87
2023/10/03 09:26:19;;;;;;;11.27;4.80;;;;;;;;;;5075619;28;20033;-87
2023/10/03 09:28:45;;;;;;;11.82;4.50;;;;;;;;;;5058306;28;20065;-89
2023/10/03 09:31:11;;;;;;;13.27;4.53;;;;;;;;;;5058712;28;20033;-89
2023/10/03 09:33:41;;;;;;;11.80;5.15;;;;;;;;;;5058931;28;20021;-89
2023/10/03 09:36:09;;;;;;;13.80;4.90;;;;;;;;;;5058308;28;20044;-89
2023/10/03 09:38:44;;;;;;;12.25;4.63;;;;;;;;;;5059261;28;20342;-86
2023/10/03 09:41:22;;;;;;;13.77;4.68;;;;;;;;;;5057955;28;20322;-87
2023/10/03 09:43:54;;;;;;;12.30;4.95;;;;;;;;;;5065805;28;20039;-86
2023/10/03 09:46:38;;;;;;;12.57;4.50;;;;;;;;;;5079062;28;20025;-86
2023/10/03 09:49:08;;;;;;;11.65;4.50;;;;;;;;;;5063647;28;20067;-87
2023/10/03 09:51:46;;;;;;;12.20;4.10;;;;;;;;;;5058553;28;20104;-86
2023/10/03 09:54:24;;;;;;;12.27;4.45;;;;;;;;;;5057838;28;20031;-87
2023/10/03 09:56:51;;;;;;;11.98;4.13;;;;;;;;;;5058616;28;20017;-87
2023/10/03 09:59:22;;;;;;;10.20;4.90;;;;;;;;;;5057836;28;20099;-86
2023/10/03 10:01:48;;;;;;;17.38;5.55;;;;;;;;;;5058782;28;20021;-87
2023/10/03 10:04:16;;;;;;;16.38;5.38;;;;;;;;;;5057506;28;20036;-86
2023/10/03 10:06:47;;;;;;;15.75;5.80;;;;;;;;;;5057404;28;20410;-86
2023/10/03 10:09:23;;;;;;;13.85;5.18;;;;;;;;;;5057345;28;20025;-86
2023/10/03 10:12:09;;;;;;;11.90;4.97;;;;;;;;;;5057457;28;20036;-87
2023/10/03 10:14:55;;;;;;;11.32;5.38;;;;;;;;;;5058266;28;20131;-87
2023/10/03 10:17:21;;;;;;;11.82;5.10;;;;;;;;;;5020649;28;20037;-86
2023/10/03 10:20:35;;;;;;;12.77;5.78;;;;;;;;;;5000108;28;20068;-90
2023/10/03 10:23:04;;;;;;;11.60;5.50;;;;;;;;;;4973036;28;20046;-92
2023/10/03 10:25:43;;;;;;;16.10;5.75;;;;;;;;;;4961773;28;20039;-91
2023/10/03 10:28:10;;;;;;;11.70;5.47;;;;;;;;;;4975769;28;20171;-94
2023/10/03 10:30:38;;;;;;;11.63;5.70;;;;;;;;;;4960098;28;20023;-94
2023/10/03 10:33:16;;;;;;;13.00;5.22;;;;;;;;;;4942667;29;20102;-93
2023/10/03 10:35:54;;;;;;;11.27;4.97;;;;;;;;;;4960648;28;20114;-95
2023/10/03 10:38:21;;;;;;;15.05;5.28;;;;;;;;;;4973691;28;20038;-90
2023/10/03 10:41:06;;;;;;;11.95;5.22;;;;;;;;;;4977067;28;20035;-91
2023/10/03 10:43:35;;;;;;;10.75;5.25;;;;;;;;;;4977214;28;20026;-92
2023/10/03 10:46:20;;;;;;;13.95;5.40;;;;;;;;;;4957002;28;20031;-95
2023/10/03 10:48:46;;;;;;;14.77;5.47;;;;;;;;;;4948167;28;20043;-85
2023/10/03 10:51:12;;;;;;;14.75;5.50;;;;;;;;;;4957670;28;20114;-86
2023/10/03 10:53:46;;;;;;;18.95;6.00;;;;;;;;;;4964372;28;20352;-86
2023/10/03 10:56:13;;;;;;;18.10;7.38;;;;;;;;;;5022701;28;20033;-86
2023/10/03 10:58:50;;;;;;;15.75;6.72;;;;;;;;;;5041834;28;20041;-86
2023/10/03 11:01:18;;;;;;;17.50;7.28;;;;;;;;;;5057219;28;20070;-84
2023/10/03 11:03:44;;;;;;;17.50;6.75;;;;;;;;;;5071124;28;20029;-93
2023/10/03 11:06:23;;;;;;;15.98;7.25;;;;;;;;;;5073227;28;20182;-94
2023/10/03 11:08:50;;;;;;;14.13;6.93;;;;;;;;;;5057871;28;20318;-94
2023/10/03 11:11:36;;;;;;;17.88;6.13;;;;;;;;;;5056648;28;20021;-93
2023/10/03 11:14:04;;;;;;;14.85;6.07;;;;;;;;;;5056488;28;20322;-92
2023/10/03 11:16:31;;;;;;;12.60;6.00;;;;;;;;;;5056947;28;20036;-92
2023/10/03 11:18:58;;;;;;;15.43;5.57;;;;;;;;;;5056360;28;20094;-93
2023/10/03 11:21:24;;;;;;;12.85;5.45;;;;;;;;;;5060148;28;20033;-93
2023/10/03 11:24:09;;;;;;;16.77;5.53;;;;;;;;;;5076584;28;20028;-93
2023/10/03 11:27:07;;;;;;;12.02;5.68;;;;;;;;;;5077717;28;20446;-94
2023/10/03 11:29:37;;;;;;;12.60;5.35;;;;;;;;;;5076514;28;20078;-96
2023/10/03 11:32:04;;;;;;;17.33;5.43;;;;;;;;;;5078199;28;20099;-95
2023/10/03 11:34:39;;;;;;;13.30;5.25;;;;;;;;;;5077127;28;20021;-96
2023/10/03 11:37:06;;;;;;;12.85;5.18;;;;;;;;;;5066672;28;20310;-95
2023/10/03 11:51:56;;;;;;;9.85;4.95;;;;;;;;;;5075136;27;20425;-95
2023/10/03 11:54:22;;;;;;;16.85;5.65;;;;;;;;;;5074172;28;20115;-94
2023/10/03 11:56:49;;;;;;;10.35;5.47;;;;;;;;;;5075247;28;20032;-93
2023/10/03 11:59:16;;;;;;;11.57;5.03;;;;;;;;;;5078372;28;20025;-93
2023/10/03 12:01:44;;;;;;;13.45;5.88;;;;;;;;;;5077769;28;20024;-92
2023/10/03 12:04:13;;;;;;;14.18;5.63;;;;;;;;;;5086510;28;20024;-95
2023/10/03 12:06:39;;;;;;;12.20;5.25;;;;;;;;;;5089009;28;20037;-96
2023/10/03 12:09:08;;;;;;;13.55;5.70;;;;;;;;;;5076962;28;20029;-93
2023/10/03 12:11:35;;;;;;;21.00;5.90;;;;;;;;;;5074004;28;20036;-94
2023/10/03 12:14:05;;;;;;;10.25;5.68;;;;;;;;;;5077367;28;20021;-95
2023/10/03 12:16:31;;;;;;;13.52;5.93;;;;;;;;;;5074971;28;20032;-95
2023/10/03 12:18:57;;;;;;;12.82;5.68;;;;;;;;;;5076895;28;20052;-96
2023/10/03 12:21:25;;;;;;;15.43;6.43;;;;;;;;;;5076369;28;20365;-94
2023/10/03 12:23:51;;;;;;;14.50;5.50;;;;;;;;;;5075434;28;20025;-91
2023/10/03 12:26:17;;;;;;;13.38;6.22;;;;;;;;;;5074543;28;20318;-91
2023/10/03 12:28:43;;;;;;;11.02;5.10;;;;;;;;;;5083344;28;20037;-92
2023/10/03 12:31:09;;;;;;;12.05;5.28;;;;;;;;;;5080584;28;20028;-92
2023/10/03 12:33:35;;;;;;;13.02;5.68;;;;;;;;;;5081431;28;20032;-88
2023/10/03 12:36:04;;;;;;;15.13;6.55;;;;;;;;;;5083401;28;20021;-91
2023/10/03 12:38:30;;;;;;;12.48;5.93;;;;;;;;;;5076146;28;20429;-92
2023/10/03 12:40:56;;;;;;;11.35;5.10;;;;;;;;;;5073528;28;20052;-89
2023/10/03 12:43:23;;;;;;;11.85;5.55;;;;;;;;;;5076183;28;20350;-94
2023/10/03 12:45:49;;;;;;;17.60;5.60;;;;;;;;;;5084266;28;20054;-96
2023/10/03 12:48:17;;;;;;;13.00;5.25;;;;;;;;;;5076171;28;20382;-93
2023/10/03 12:50:44;;;;;;;12.15;4.93;;;;;;;;;;5068950;28;20057;-94
2023/10/03 12:53:10;;;;;;;15.77;5.97;;;;;;;;;;5053223;28;20029;-89
2023/10/03 12:55:38;;;;;;;13.05;6.00;;;;;;;;;;5056808;28;20025;-93
2023/10/03 12:58:04;;;;;;;12.35;5.22;;;;;;;;;;5039894;28;20116;-93
2023/10/03 13:00:30;;;;;;;12.80;6.20;;;;;;;;;;5043250;28;20025;-92
2023/10/03 13:02:59;;;;;;;13.95;5.63;;;;;;;;;;5059489;28;20072;-93
2023/10/03 13:05:25;;;;;;;13.35;5.25;;;;;;;;;;5058996;28;20017;-93
2023/10/03 13:07:53;;;;;;;14.07;6.05;;;;;;;;;;5060397;28;20025;-93
2023/10/03 13:10:19;;;;;;;11.55;5.80;;;;;;;;;;5060045;28;20040;-93
2023/10/03 13:12:46;;;;;;;13.70;5.65;;;;;;;;;;5059240;28;20488;-91
2023/10/03 13:15:17;;;;;;;12.55;5.45;;;;;;;;;;5059890;28;20025;-95
2023/10/03 13:17:44;;;;;;;15.07;5.60;;;;;;;;;;5060335;28;20025;-95
2023/10/03 13:20:14;;;;;;;11.15;4.85;;;;;;;;;;5060038;28;20033;-95
2023/10/03 13:22:45;;;;;;;15.93;5.90;;;;;;;;;;5060470;28;20045;-94
2023/10/03 13:25:12;;;;;;;11.90;6.00;;;;;;;;;;5060649;28;20027;-91
2023/10/03 13:27:39;;;;;;;10.48;5.63;;;;;;;;;;5058377;28;20025;-84
2023/10/03 13:30:10;;;;;;;12.20;5.53;;;;;;;;;;5058460;28;20025;-85
2023/10/03 13:32:39;;;;;;;10.65;5.57;;;;;;;;;;5058532;28;20025;-86
2023/10/03 13:35:12;;;;;;;12.68;5.82;;;;;;;;;;5059682;28;20033;-86
2023/10/03 13:37:39;;;;;;;16.52;5.55;;;;;;;;;;5059703;28;20029;-85
2023/10/03 13:40:11;;;;;;;12.23;5.15;;;;;;;;;;5058460;28;20353;-86
2023/10/03 13:42:38;;;;;;;15.60;6.07;;;;;;;;;;5058356;28;20029;-85
2023/10/03 13:45:05;;;;;;;18.33;5.72;;;;;;;;;;5058250;28;20069;-85
2023/10/03 13:47:31;;;;;;;18.83;5.53;;;;;;;;;;5059232;28;20056;-86
2023/10/03 13:49:57;;;;;;;23.17;6.30;;;;;;;;;;5058952;28;20445;-86
2023/10/03 13:52:23;;;;;;;14.93;5.07;;;;;;;;;;5058082;28;20033;-85
2023/10/03 13:54:50;;;;;;;10.27;5.53;;;;;;;;;;5059061;28;20119;-86
2023/10/03 13:57:16;;;;;;;12.73;5.53;;;;;;;;;;5057727;28;20033;-86
2023/10/03 13:59:46;;;;;;;9.98;5.10;;;;;;;;;;5058003;28;20131;-86
2023/10/03 14:02:12;;;;;;;12.43;5.57;;;;;;;;;;5048763;28;20376;-86
2023/10/03 14:04:38;;;;;;;11.55;5.25;;;;;;;;;;5038071;28;20351;-86
2023/10/03 14:07:04;;;;;;;13.68;5.78;;;;;;;;;;5037967;28;20029;-85
2023/10/03 14:09:32;;;;;;;14.15;5.68;;;;;;;;;;5037922;28;20025;-85
2023/10/03 14:12:00;;;;;;;11.70;5.60;;;;;;;;;;5038696;28;20033;-84
2023/10/03 14:14:28;;;;;;;15.65;6.13;;;;;;;;;;5038660;28;20025;-85
2023/10/03 14:16:58;;;;;;;13.80;5.82;;;;;;;;;;5037535;28;20100;-84
2023/10/03 14:19:25;;;;;;;15.50;5.80;;;;;;;;;;5037341;28;20434;-84
2023/10/03 14:21:51;;;;;;;14.02;6.05;;;;;;;;;;5038607;28;20033;-83
2023/10/03 14:24:20;;;;;;;13.13;5.53;;;;;;;;;;5038371;28;20029;-84
2023/10/03 14:26:46;;;;;;;13.75;5.93;;;;;;;;;;5038302;28;20404;-83
2023/10/03 14:29:12;;;;;;;12.27;5.55;;;;;;;;;;5037289;28;20068;-83
2023/10/03 14:31:38;;;;;;;12.75;5.47;;;;;;;;;;5038299;28;20047;-83
2023/10/03 14:34:05;;;;;;;12.45;5.68;;;;;;;;;;5038328;28;20021;-83
2023/10/03 14:36:32;;;;;;;11.63;5.47;;;;;;;;;;5038153;28;20331;-83
2023/10/03 14:39:01;;;;;;;10.23;5.03;;;;;;;;;;5037162;28;20038;-82
2023/10/03 14:41:27;;;;;;;11.15;5.68;;;;;;;;;;5037973;28;20036;-88
2023/10/03 14:43:54;;;;;;;12.40;6.28;;;;;;;;;;5038227;28;20021;-86
2023/10/03 14:46:20;;;;;;;14.18;5.22;;;;;;;;;;5038154;28;20025;-85
2023/10/03 14:48:46;;;;;;;17.50;5.85;;;;;;;;;;5057277;28;20036;-86
2023/10/03 14:51:12;;;;;;;11.40;5.00;;;;;;;;;;5057606;28;20060;-86
2023/10/03 14:53:41;;;;;;;9.55;5.28;;;;;;;;;;5054038;28;20067;-87
2023/10/03 14:56:08;;;;;;;11.05;5.40;;;;;;;;;;5057835;28;20035;-85
2023/10/03 14:58:40;;;;;;;17.38;5.55;;;;;;;;;;5057697;28;20036;-86
2023/10/03 15:01:06;;;;;;;11.10;5.50;;;;;;;;;;5057635;28;20021;-86
2023/10/03 15:03:33;;;;;;;17.50;7.40;;;;;;;;;;5058010;28;20028;-86
2023/10/03 15:06:00;;;;;;;45.38;19.08;;;;;;;;;;5057916;28;20029;-88
2023/10/03 15:08:27;;;;;;;42.67;21.58;;;;;;;;;;5056809;28;20022;-89
2023/10/03 15:11:00;;;;;;;27.77;12.93;;;;;;;;;;5057714;28;20068;-88
2023/10/03 15:13:26;;;;;;;32.15;13.27;;;;;;;;;;5056582;28;20342;-88
2023/10/03 15:15:53;;;;;;;27.42;13.07;;;;;;;;;;5057605;28;20021;-89
2023/10/03 15:18:19;;;;;;;28.13;12.18;;;;;;;;;;5057513;28;20041;-89
2023/10/03 15:20:45;;;;;;;17.40;8.82;;;;;;;;;;5057153;28;20033;-88
2023/10/03 15:23:11;;;;;;;29.00;14.48;;;;;;;;;;5057174;28;20017;-88
2023/10/03 15:25:39;;;;;;;27.17;14.75;;;;;;;;;;5057593;28;20021;-88
2023/10/03 15:28:05;;;;;;;21.10;10.70;;;;;;;;;;5056485;28;20029;-88
2023/10/03 15:30:31;;;;;;;61.55;27.77;;;;;;;;;;5057665;28;20044;-88
2023/10/03 15:33:00;;;;;;;68.55;32.20;;;;;;;;;;5056604;28;20025;-88
2023/10/03 15:35:26;;;;;;;66.90;30.08;;;;;;;;;;5056344;28;20033;-88
2023/10/03 15:37:52;;;;;;;59.85;25.00;;;;;;;;;;5056726;28;20314;-89
2023/10/03 15:40:20;;;;;;;31.75;15.50;;;;;;;;;;5056989;28;20422;-90
2023/10/03 15:42:47;;;;;;;36.03;13.73;;;;;;;;;;5057217;28;20128;-88
2023/10/03 15:45:13;;;;;;;62.47;28.25;;;;;;;;;;5057258;28;20407;-87